Time;durP1;ratioP1;P1;durP2;ratioP2;P2;SDS_P1;SDS_P2;PMS_P1;PMS_P2;Temp;Humidity;BMP_temperature;BMP_pressure;BME280_temperature;BME280_humidity;BME280_pressure;Samples;Min_cycle;Max_cycle;Signal;HPM_P1;HPM_P2
2021/09/02 00:00:07;;;;;;;9.70;7.77;;;19.80;99.90;;;;;;4945249;28;20446;-59
2021/09/02 00:02:34;;;;;;;13.57;11.77;;;19.90;99.90;;;;;;4950780;28;20443;-60
2021/09/02 00:05:01;;;;;;;9.83;7.57;;;19.90;99.90;;;;;;4953144;28;20476;-58
2021/09/02 00:07:29;;;;;;;8.27;6.70;;;19.90;99.90;;;;;;4945678;28;20422;-59
2021/09/02 00:09:56;;;;;;;8.90;6.93;;;20.00;99.90;;;;;;4946855;28;20422;-59
2021/09/02 00:12:23;;;;;;;9.90;7.70;;;20.10;99.90;;;;;;4946082;28;20827;-67
2021/09/02 00:14:51;;;;;;;8.77;6.33;;;20.40;99.90;;;;;;4947933;28;20430;-68
2021/09/02 00:17:18;;;;;;;16.70;9.83;;;20.60;99.90;;;;;;4947981;28;20773;-71
2021/09/02 00:19:45;;;;;;;9.20;7.43;;;20.60;99.90;;;;;;4949641;28;20432;-70
2021/09/02 00:22:13;;;;;;;9.40;7.43;;;20.80;99.90;;;;;;4947531;28;20483;-71
2021/09/02 00:24:40;;;;;;;10.80;8.67;;;20.90;99.90;;;;;;4947310;28;20870;-73
2021/09/02 00:27:07;;;;;;;10.30;8.43;;;20.90;99.90;;;;;;4952903;28;20444;-74
2021/09/02 00:29:35;;;;;;;14.00;7.30;;;21.00;99.90;;;;;;4944462;28;20437;-73
2021/09/02 00:32:02;;;;;;;13.00;8.17;;;21.10;99.90;;;;;;4947855;28;20437;-73
2021/09/02 00:34:29;;;;;;;10.27;8.87;;;21.00;99.90;;;;;;4952788;28;21037;-73
2021/09/02 00:36:57;;;;;;;10.10;8.47;;;21.10;99.90;;;;;;4947881;28;20533;-70
2021/09/02 00:39:24;;;;;;;11.10;9.60;;;21.30;99.90;;;;;;4942974;28;20504;-71
2021/09/02 00:41:51;;;;;;;8.73;6.87;;;21.40;99.90;;;;;;4949272;28;20468;-70
2021/09/02 00:44:40;;;;;;;11.60;10.47;;;21.50;99.90;;;;;;4946589;28;20948;-70
2021/09/02 00:47:12;;;;;;;11.97;8.67;;;21.50;99.90;;;;;;4940910;28;20441;-74
2021/09/02 00:49:40;;;;;;;12.30;7.93;;;21.30;99.90;;;;;;4945813;28;20433;-64
2021/09/02 00:52:16;;;;;;;8.53;6.63;;;21.10;99.90;;;;;;4956811;28;20997;-65
2021/09/02 00:54:51;;;;;;;11.80;10.63;;;21.30;99.90;;;;;;4955505;28;20902;-66
2021/09/02 00:57:24;;;;;;;8.77;6.67;;;21.30;99.90;;;;;;4949979;28;20268;-59
2021/09/02 01:00:17;;;;;;;11.23;9.90;;;21.50;99.90;;;;;;4942680;28;20514;-68
2021/09/02 01:02:46;;;;;;;14.07;11.23;;;21.50;99.90;;;;;;4939445;28;20784;-59
2021/09/02 01:05:16;;;;;;;9.33;7.17;;;21.30;99.90;;;;;;4954345;28;20457;-60
2021/09/02 01:07:44;;;;;;;11.40;8.73;;;21.60;99.90;;;;;;4947216;28;20429;-59
2021/09/02 01:10:12;;;;;;;10.90;8.50;;;21.70;99.90;;;;;;4944891;28;20459;-67
2021/09/02 01:12:45;;;;;;;15.37;10.13;;;21.70;99.90;;;;;;4959136;28;20435;-57
2021/09/02 01:15:20;;;;;;;9.97;7.33;;;21.60;99.90;;;;;;4950065;28;20798;-60
2021/09/02 01:17:51;;;;;;;15.23;13.80;;;21.60;99.90;;;;;;4944134;28;20555;-58
2021/09/02 01:20:21;;;;;;;21.10;6.80;;;21.80;99.90;;;;;;4950068;28;20242;-60
2021/09/02 01:22:50;;;;;;;11.50;7.03;;;22.20;99.90;;;;;;4946442;28;20661;-57
2021/09/02 01:25:24;;;;;;;10.37;6.93;;;22.40;99.90;;;;;;4953528;28;20817;-63
2021/09/02 01:27:54;;;;;;;12.63;7.80;;;22.30;99.90;;;;;;4944833;28;20190;-67
2021/09/02 01:30:22;;;;;;;11.17;8.03;;;22.20;99.90;;;;;;4942038;28;20807;-66
2021/09/02 01:32:51;;;;;;;10.23;6.80;;;22.10;99.90;;;;;;4951058;28;20195;-59
2021/09/02 01:35:21;;;;;;;13.60;9.30;;;22.30;99.90;;;;;;4944787;28;20184;-59
2021/09/02 01:37:54;;;;;;;16.00;9.43;;;22.20;99.90;;;;;;4944795;28;20192;-69
2021/09/02 01:40:27;;;;;;;10.50;6.63;;;22.30;99.90;;;;;;4949946;28;20191;-64
2021/09/02 01:42:54;;;;;;;11.80;9.20;;;22.30;99.90;;;;;;4947057;28;20239;-60
2021/09/02 01:45:22;;;;;;;12.17;6.83;;;22.00;99.90;;;;;;4953590;28;20223;-66
2021/09/02 01:47:49;;;;;;;11.50;8.73;;;22.10;99.90;;;;;;4952332;28;20531;-59
2021/09/02 01:50:19;;;;;;;14.77;9.73;;;22.10;99.90;;;;;;4953178;28;20194;-62
2021/09/02 01:52:48;;;;;;;13.13;8.83;;;22.00;99.90;;;;;;4949432;28;20270;-60
2021/09/02 01:55:15;;;;;;;12.20;9.13;;;22.30;99.90;;;;;;4945400;28;20191;-60
2021/09/02 01:57:43;;;;;;;19.87;12.30;;;22.30;99.90;;;;;;4947685;28;20215;-64
2021/09/02 02:00:13;;;;;;;11.00;8.47;;;22.40;99.90;;;;;;4943242;28;20211;-63
2021/09/02 02:02:41;;;;;;;14.80;8.87;;;22.30;99.90;;;;;;4948914;28;20654;-59
2021/09/02 02:05:10;;;;;;;9.23;5.93;;;22.10;99.90;;;;;;4941841;28;20237;-59
2021/09/02 02:07:42;;;;;;;20.83;9.97;;;22.40;99.90;;;;;;4950049;28;20194;-61
2021/09/02 02:10:13;;;;;;;8.83;7.07;;;22.40;99.90;;;;;;4949215;28;20206;-60
2021/09/02 02:12:40;;;;;;;12.10;9.43;;;22.50;99.90;;;;;;4954328;28;20186;-60
2021/09/02 02:15:09;;;;;;;8.83;7.10;;;22.80;99.90;;;;;;4944851;28;20179;-61
2021/09/02 02:17:36;;;;;;;8.23;6.30;;;23.00;99.90;;;;;;4941410;28;20191;-65
2021/09/02 02:20:04;;;;;;;14.37;13.10;;;23.20;99.90;;;;;;4955228;28;20184;-59
2021/09/02 02:22:32;;;;;;;8.93;7.43;;;23.00;99.90;;;;;;4946970;28;20728;-62
2021/09/02 02:24:59;;;;;;;12.50;11.30;;;22.80;99.90;;;;;;4947963;28;20184;-59
2021/09/02 02:27:27;;;;;;;8.23;6.17;;;22.80;99.90;;;;;;4952834;28;20241;-65
2021/09/02 02:29:54;;;;;;;9.00;6.00;;;22.60;99.90;;;;;;4953745;28;20203;-59
2021/09/02 02:32:21;;;;;;;9.80;7.87;;;22.50;99.90;;;;;;4960676;28;20183;-66
2021/09/02 02:34:49;;;;;;;11.90;10.73;;;22.00;99.90;;;;;;4946136;28;20426;-60
2021/09/02 02:37:17;;;;;;;12.03;7.63;;;21.80;99.90;;;;;;4946947;28;20544;-66
2021/09/02 02:39:44;;;;;;;13.30;7.53;;;22.00;99.90;;;;;;4952404;28;20197;-59
2021/09/02 02:42:12;;;;;;;8.97;5.77;;;22.00;99.90;;;;;;4950263;28;20240;-64
2021/09/02 02:44:39;;;;;;;11.93;9.23;;;22.20;99.90;;;;;;4951715;28;20662;-59
2021/09/02 02:47:08;;;;;;;12.67;8.30;;;22.10;99.90;;;;;;4949836;28;20212;-63
2021/09/02 02:49:39;;;;;;;20.70;8.40;;;22.10;99.90;;;;;;4948407;29;20218;-59
2021/09/02 02:52:09;;;;;;;10.90;7.27;;;22.20;99.90;;;;;;4957065;28;20191;-64
2021/09/02 02:54:36;;;;;;;13.63;8.77;;;22.60;99.90;;;;;;4952359;28;20275;-60
2021/09/02 02:57:04;;;;;;;11.40;7.83;;;22.20;99.90;;;;;;4955282;28;20192;-68
2021/09/02 02:59:31;;;;;;;10.10;8.10;;;22.20;99.90;;;;;;4951683;28;20235;-70
2021/09/02 03:01:59;;;;;;;12.73;9.10;;;22.30;99.90;;;;;;4944845;28;20200;-68
2021/09/02 03:04:26;;;;;;;11.13;9.27;;;22.10;99.90;;;;;;4951400;28;20222;-69
2021/09/02 03:06:53;;;;;;;8.07;5.87;;;22.20;99.90;;;;;;4946502;29;20228;-64
2021/09/02 03:09:21;;;;;;;8.43;7.33;;;22.60;99.90;;;;;;4949088;29;20188;-71
2021/09/02 03:11:48;;;;;;;8.97;7.47;;;22.80;99.90;;;;;;4947957;29;20228;-66
2021/09/02 03:14:15;;;;;;;8.47;6.87;;;23.10;99.90;;;;;;4952298;29;20191;-67
2021/09/02 03:16:43;;;;;;;15.20;13.83;;;23.00;99.90;;;;;;4948018;28;20203;-69
2021/09/02 03:19:10;;;;;;;9.13;8.30;;;23.50;99.90;;;;;;4958426;28;20656;-68
2021/09/02 03:21:37;;;;;;;11.73;10.83;;;23.90;99.90;;;;;;4946179;28;20192;-66
2021/09/02 03:24:05;;;;;;;6.50;6.00;;;24.00;99.90;;;;;;4958719;28;20230;-65
2021/09/02 03:26:32;;;;;;;8.73;8.10;;;24.30;99.90;;;;;;4952720;28;20785;-65
2021/09/02 03:28:59;;;;;;;4.80;4.33;;;24.30;99.90;;;;;;4958452;28;20175;-68
2021/09/02 03:31:27;;;;;;;8.50;7.20;;;23.80;99.90;;;;;;4946441;28;20635;-71
2021/09/02 03:33:54;;;;;;;6.90;6.23;;;23.40;99.90;;;;;;4952121;28;20191;-62
2021/09/02 03:36:21;;;;;;;7.80;7.07;;;23.20;99.90;;;;;;4950030;28;20211;-69
2021/09/02 03:38:49;;;;;;;6.73;4.77;;;23.30;99.90;;;;;;4948568;28;20708;-71
2021/09/02 03:41:16;;;;;;;8.87;5.77;;;23.40;99.90;;;;;;4956518;28;20551;-68
2021/09/02 03:43:43;;;;;;;9.13;5.47;;;23.60;99.90;;;;;;4947618;28;20292;-67
2021/09/02 03:46:11;;;;;;;6.23;5.63;;;24.00;99.90;;;;;;4953370;28;20215;-71
2021/09/02 03:48:38;;;;;;;15.57;14.27;;;24.30;99.90;;;;;;4956943;28;20186;-73
2021/09/02 03:51:05;;;;;;;9.30;8.13;;;24.10;99.90;;;;;;4942977;28;20802;-70
2021/09/02 03:53:33;;;;;;;10.63;9.83;;;23.70;99.90;;;;;;4951919;28;20179;-68
2021/09/02 03:56:00;;;;;;;14.10;13.00;;;23.70;99.90;;;;;;4951850;28;20194;-70
2021/09/02 03:58:27;;;;;;;10.07;9.13;;;23.50;99.90;;;;;;4945791;28;20182;-67
2021/09/02 04:00:55;;;;;;;27.13;14.93;;;23.30;99.90;;;;;;4948917;28;20596;-73
2021/09/02 04:03:22;;;;;;;13.33;8.00;;;23.60;99.90;;;;;;4953116;28;20673;-72
2021/09/02 04:05:49;;;;;;;10.13;9.17;;;23.50;99.90;;;;;;4948729;28;20199;-66
2021/09/02 04:08:16;;;;;;;482.60;181.73;;;23.50;99.90;;;;;;4950996;28;20190;-68
2021/09/02 04:10:44;;;;;;;15.17;12.03;;;23.50;99.90;;;;;;4948075;28;20769;-60
2021/09/02 04:13:11;;;;;;;9.00;8.30;;;23.80;99.90;;;;;;4946359;28;20192;-62
2021/09/02 04:15:38;;;;;;;9.03;6.23;;;24.00;99.90;;;;;;4951314;28;20183;-59
2021/09/02 04:18:06;;;;;;;10.13;7.47;;;24.10;99.90;;;;;;4950729;28;20191;-60
2021/09/02 04:20:33;;;;;;;9.03;8.27;;;23.90;99.90;;;;;;4951229;28;20247;-60
2021/09/02 04:23:01;;;;;;;7.80;6.53;;;23.60;99.90;;;;;;4953164;28;20195;-59
2021/09/02 04:25:28;;;;;;;6.87;5.00;;;23.60;99.90;;;;;;4948232;28;20233;-60
2021/09/02 04:27:55;;;;;;;11.10;7.03;;;23.70;99.90;;;;;;4946666;28;20275;-64
2021/09/02 04:30:23;;;;;;;13.30;7.50;;;23.40;99.90;;;;;;4950141;28;20192;-61
2021/09/02 04:32:50;;;;;;;450.63;166.97;;;23.00;99.90;;;;;;4954256;28;20187;-61
2021/09/02 04:35:18;;;;;;;26.40;10.20;;;22.90;99.90;;;;;;4941726;28;20184;-68
2021/09/02 04:37:47;;;;;;;14.87;7.93;;;23.40;99.90;;;;;;4950197;28;20219;-64
2021/09/02 04:40:16;;;;;;;20.57;11.10;;;23.60;99.90;;;;;;4947814;28;20198;-60
2021/09/02 04:42:47;;;;;;;316.87;115.23;;;23.40;99.90;;;;;;4946519;28;20318;-63
2021/09/02 04:45:14;;;;;;;13.20;8.77;;;23.60;99.90;;;;;;4944760;28;20222;-58
2021/09/02 04:47:41;;;;;;;9.73;8.77;;;23.80;99.90;;;;;;4951447;28;20192;-64
2021/09/02 04:50:12;;;;;;;7.90;6.23;;;23.50;99.90;;;;;;4945797;28;20529;-59
2021/09/02 04:52:40;;;;;;;8.93;8.33;;;23.30;99.90;;;;;;4955783;28;20214;-59
2021/09/02 04:55:08;;;;;;;7.40;6.70;;;23.50;99.90;;;;;;4949158;28;20183;-65
2021/09/02 04:57:35;;;;;;;8.20;7.37;;;23.40;99.90;;;;;;4942638;28;20192;-59
2021/09/02 05:00:04;;;;;;;5.43;4.33;;;23.10;99.90;;;;;;4947960;28;20179;-60
2021/09/02 05:02:31;;;;;;;7.50;6.80;;;23.00;99.90;;;;;;4947476;29;20694;-58
2021/09/02 05:04:58;;;;;;;7.87;6.70;;;23.20;99.90;;;;;;4940742;28;20188;-59
2021/09/02 05:07:26;;;;;;;7.33;6.73;;;23.50;99.90;;;;;;4947239;28;20196;-63
2021/09/02 05:09:53;;;;;;;7.60;6.93;;;23.60;99.90;;;;;;4945115;28;20497;-58
2021/09/02 05:12:20;;;;;;;5.73;5.13;;;23.30;99.90;;;;;;4945357;28;20192;-59
2021/09/02 05:14:48;;;;;;;10.00;9.20;;;23.30;99.90;;;;;;4952550;28;20551;-59
2021/09/02 05:17:15;;;;;;;16.23;4.17;;;23.80;99.90;;;;;;4943028;28;20190;-61
2021/09/02 05:19:42;;;;;;;7.83;7.10;;;23.60;99.90;;;;;;4953019;28;20581;-65
2021/09/02 05:22:10;;;;;;;5.90;4.67;;;23.40;99.90;;;;;;4950680;28;20197;-59
2021/09/02 05:24:37;;;;;;;18.83;11.37;;;23.40;99.90;;;;;;4952898;28;20205;-65
2021/09/02 05:27:05;;;;;;;8.00;7.33;;;23.30;99.90;;;;;;4939298;28;20234;-60
2021/09/02 05:29:33;;;;;;;471.07;182.17;;;23.30;99.90;;;;;;4948330;28;20242;-63
2021/09/02 05:32:00;;;;;;;6.07;5.57;;;23.30;99.90;;;;;;4943457;28;20187;-58
2021/09/02 05:34:28;;;;;;;11.27;8.73;;;23.40;99.90;;;;;;4945826;28;20599;-59
2021/09/02 05:36:55;;;;;;;9.37;8.53;;;23.40;99.90;;;;;;4947850;28;20197;-61
2021/09/02 05:39:22;;;;;;;7.80;7.00;;;23.20;99.90;;;;;;4951805;28;20183;-59
2021/09/02 05:41:50;;;;;;;9.43;8.60;;;23.20;99.90;;;;;;4947969;28;20205;-60
2021/09/02 05:44:18;;;;;;;6.70;5.50;;;23.30;99.90;;;;;;4946087;28;20196;-63
2021/09/02 05:46:45;;;;;;;9.70;8.37;;;23.40;99.90;;;;;;4949687;28;20708;-62
2021/09/02 05:49:13;;;;;;;8.80;7.97;;;23.10;99.90;;;;;;4946529;28;20188;-63
2021/09/02 05:51:41;;;;;;;12.57;8.63;;;23.10;99.90;;;;;;4946364;28;20191;-61
2021/09/02 05:54:08;;;;;;;8.60;7.80;;;23.20;99.90;;;;;;4949742;28;20195;-68
2021/09/02 05:56:35;;;;;;;11.70;9.83;;;23.00;99.90;;;;;;4952203;28;20235;-69
2021/09/02 05:59:03;;;;;;;10.10;9.10;;;23.10;99.90;;;;;;4945265;28;20658;-62
2021/09/02 06:01:30;;;;;;;9.93;8.93;;;22.60;99.90;;;;;;4944716;29;20606;-67
2021/09/02 06:03:58;;;;;;;15.27;7.87;;;22.80;99.90;;;;;;4947105;28;20180;-69
2021/09/02 06:06:26;;;;;;;9.53;6.37;;;22.90;99.90;;;;;;4946260;28;20297;-63
2021/09/02 06:08:53;;;;;;;10.33;6.90;;;22.30;99.90;;;;;;4944230;28;20179;-69
2021/09/02 06:11:20;;;;;;;9.10;7.17;;;22.00;99.90;;;;;;4950823;28;20724;-63
2021/09/02 06:13:48;;;;;;;10.37;8.70;;;21.90;99.90;;;;;;4943837;28;20180;-68
2021/09/02 06:16:15;;;;;;;11.97;5.50;;;22.20;99.90;;;;;;4944807;28;20188;-72
2021/09/02 06:18:43;;;;;;;9.97;8.73;;;22.00;99.90;;;;;;4944722;28;20269;-74
2021/09/02 06:21:10;;;;;;;9.47;6.97;;;21.80;99.90;;;;;;4950093;28;20191;-71
2021/09/02 06:23:38;;;;;;;19.13;14.60;;;21.70;99.90;;;;;;4947753;28;20229;-64
2021/09/02 06:26:05;;;;;;;11.30;6.60;;;21.50;99.90;;;;;;4948977;28;20210;-65
2021/09/02 06:28:32;;;;;;;22.87;12.60;;;21.60;99.90;;;;;;4947252;28;20226;-70
2021/09/02 06:31:00;;;;;;;12.70;7.90;;;21.90;99.90;;;;;;4943728;28;20188;-75
2021/09/02 06:33:27;;;;;;;12.40;8.73;;;21.80;99.90;;;;;;4939184;28;20211;-71
2021/09/02 06:35:55;;;;;;;15.07;7.47;;;21.60;99.90;;;;;;4951385;28;20215;-64
2021/09/02 06:38:22;;;;;;;25.67;8.63;;;21.00;99.90;;;;;;4950880;28;20444;-68
2021/09/02 06:40:49;;;;;;;10.43;7.17;;;20.80;99.90;;;;;;4941490;28;20191;-69
2021/09/02 06:43:17;;;;;;;10.67;9.00;;;20.50;99.90;;;;;;4948329;28;20234;-66
2021/09/02 06:45:44;;;;;;;12.67;10.63;;;20.20;99.90;;;;;;4951142;28;20479;-68
2021/09/02 06:48:12;;;;;;;10.97;9.80;;;20.20;99.90;;;;;;4951761;28;20507;-70
2021/09/02 06:50:39;;;;;;;16.77;10.20;;;20.00;99.90;;;;;;4948030;28;20812;-64
2021/09/02 06:53:06;;;;;;;11.17;9.77;;;20.10;99.90;;;;;;4954776;28;20411;-67
2021/09/02 06:55:34;;;;;;;12.63;11.27;;;20.00;99.90;;;;;;4954042;28;20433;-66
2021/09/02 06:58:01;;;;;;;12.97;11.83;;;19.90;99.90;;;;;;4954865;28;20451;-71
2021/09/02 07:00:29;;;;;;;12.57;11.37;;;19.90;99.90;;;;;;4950282;28;20437;-69
2021/09/02 07:02:57;;;;;;;9.87;8.87;;;19.90;99.90;;;;;;4966857;28;20417;-64
2021/09/02 07:05:24;;;;;;;10.43;9.07;;;19.80;99.90;;;;;;4961371;28;20995;-69
2021/09/02 07:07:54;;;;;;;9.43;8.40;;;19.70;99.90;;;;;;4965546;28;20434;-67
2021/09/02 07:10:21;;;;;;;7.83;6.47;;;19.70;99.90;;;;;;4957066;28;20809;-67
2021/09/02 07:12:49;;;;;;;13.40;12.20;;;19.60;99.90;;;;;;4954261;28;20436;-74
2021/09/02 07:15:17;;;;;;;8.57;7.60;;;19.50;99.90;;;;;;4955142;28;20422;-71
2021/09/02 07:17:45;;;;;;;8.97;7.73;;;19.50;99.90;;;;;;4954613;28;20785;-67
2021/09/02 07:20:13;;;;;;;8.37;6.87;;;19.50;99.90;;;;;;4934547;29;20432;-69
2021/09/02 07:22:40;;;;;;;8.90;8.00;;;19.40;99.90;;;;;;4944274;28;20816;-64
2021/09/02 07:25:08;;;;;;;8.60;7.53;;;19.30;99.90;;;;;;4949777;28;20506;-66
2021/09/02 07:27:35;;;;;;;18.93;13.70;;;19.20;99.90;;;;;;4948578;28;20441;-67
2021/09/02 07:30:03;;;;;;;8.73;7.53;;;19.20;99.90;;;;;;4949557;28;20426;-66
2021/09/02 07:32:30;;;;;;;10.77;9.70;;;19.00;99.90;;;;;;4945284;28;20816;-60
2021/09/02 07:34:58;;;;;;;10.17;8.90;;;19.00;99.90;;;;;;4953393;28;20435;-61
2021/09/02 07:37:25;;;;;;;8.27;7.07;;;19.00;99.90;;;;;;4940491;28;20454;-62
2021/09/02 07:39:53;;;;;;;9.20;8.30;;;18.90;99.90;;;;;;4955649;28;20434;-58
2021/09/02 07:42:20;;;;;;;10.13;9.13;;;18.90;99.90;;;;;;4953491;28;20526;-58
2021/09/02 07:44:48;;;;;;;10.00;8.87;;;18.90;99.90;;;;;;4953558;28;20449;-64
2021/09/02 07:47:15;;;;;;;8.80;7.87;;;18.80;99.90;;;;;;4948765;28;20564;-59
2021/09/02 07:49:43;;;;;;;12.43;11.10;;;18.80;99.90;;;;;;4949119;28;20430;-66
2021/09/02 07:52:10;;;;;;;11.13;10.10;;;18.70;99.90;;;;;;4955385;28;20466;-60
2021/09/02 07:54:38;;;;;;;13.27;11.93;;;18.70;99.90;;;;;;4958056;28;20780;-64
2021/09/02 07:57:05;;;;;;;13.13;11.90;;;18.70;99.90;;;;;;4947808;28;20918;-59
2021/09/02 07:59:33;;;;;;;15.90;14.60;;;18.70;99.90;;;;;;4955851;28;20432;-60
2021/09/02 08:02:00;;;;;;;10.03;9.03;;;18.60;99.90;;;;;;4944190;28;21001;-61
2021/09/02 08:04:27;;;;;;;9.67;7.70;;;18.60;99.90;;;;;;4961119;28;20482;-60
2021/09/02 08:06:55;;;;;;;11.07;8.93;;;18.60;99.90;;;;;;4948690;28;20534;-64
2021/09/02 08:09:22;;;;;;;10.13;8.57;;;18.60;99.90;;;;;;4947054;28;20510;-63
2021/09/02 08:11:49;;;;;;;9.27;6.93;;;18.60;99.90;;;;;;4950837;28;20437;-59
2021/09/02 08:14:17;;;;;;;10.43;8.83;;;18.60;99.90;;;;;;4949983;28;20419;-61
2021/09/02 08:16:44;;;;;;;12.57;11.30;;;18.50;99.90;;;;;;4949493;28;20436;-61
2021/09/02 08:19:11;;;;;;;15.47;9.83;;;18.50;99.90;;;;;;4948291;28;20925;-61
2021/09/02 08:21:39;;;;;;;9.70;7.90;;;18.50;99.90;;;;;;4945741;28;20444;-64
2021/09/02 08:24:07;;;;;;;13.53;12.10;;;18.50;99.90;;;;;;4954929;28;20432;-68
2021/09/02 08:26:35;;;;;;;21.13;14.40;;;18.50;99.90;;;;;;4951993;28;21185;-69
2021/09/02 08:29:03;;;;;;;16.53;10.27;;;18.50;99.90;;;;;;4943925;28;20453;-62
2021/09/02 08:31:30;;;;;;;9.63;8.07;;;18.50;99.90;;;;;;4956069;28;20439;-68
2021/09/02 08:33:58;;;;;;;9.10;7.07;;;18.40;99.90;;;;;;4955109;28;20453;-64
2021/09/02 08:36:26;;;;;;;10.33;9.00;;;18.40;99.90;;;;;;4952492;28;20444;-60
2021/09/02 08:38:53;;;;;;;11.87;9.30;;;18.40;99.90;;;;;;4946059;28;20933;-58
2021/09/02 08:41:21;;;;;;;11.27;10.07;;;18.40;99.90;;;;;;4940869;28;20437;-60
2021/09/02 08:43:49;;;;;;;10.20;9.03;;;18.40;99.90;;;;;;4954472;28;20523;-62
2021/09/02 08:46:17;;;;;;;16.13;7.87;;;18.40;99.90;;;;;;4952860;28;20462;-61
2021/09/02 08:48:47;;;;;;;11.93;10.73;;;18.40;99.90;;;;;;4951886;28;20908;-59
2021/09/02 08:51:15;;;;;;;12.60;8.63;;;18.40;99.90;;;;;;4955375;28;20428;-61
2021/09/02 08:53:43;;;;;;;12.10;10.87;;;18.40;99.90;;;;;;4955406;28;20428;-62
2021/09/02 08:56:11;;;;;;;10.30;8.47;;;18.30;99.90;;;;;;4952539;28;20441;-60
2021/09/02 08:58:38;;;;;;;12.10;10.90;;;18.30;99.90;;;;;;4948162;28;20994;-60
2021/09/02 09:01:10;;;;;;;11.83;10.57;;;18.30;99.90;;;;;;4952098;28;20426;-59
2021/09/02 09:03:38;;;;;;;10.27;9.13;;;18.30;99.90;;;;;;4950388;28;20846;-60
2021/09/02 09:06:09;;;;;;;9.37;7.10;;;18.30;99.90;;;;;;4958214;28;20541;-59
2021/09/02 09:08:41;;;;;;;10.87;9.73;;;18.30;99.90;;;;;;4974291;28;20424;-59
2021/09/02 09:11:21;;;;;;;10.33;8.23;;;18.30;99.90;;;;;;4974181;28;20799;-59
2021/09/02 09:14:03;;;;;;;9.47;7.07;;;18.30;99.90;;;;;;4958976;28;20455;-59
2021/09/02 09:16:46;;;;;;;11.77;10.57;;;18.20;99.90;;;;;;4951610;28;20430;-60
2021/09/02 09:19:54;;;;;;;16.97;9.10;;;18.30;99.90;;;;;;4954891;28;20792;-61
2021/09/02 09:22:23;;;;;;;9.17;7.60;;;18.20;99.90;;;;;;4954205;29;20508;-60
2021/09/02 09:24:54;;;;;;;10.93;9.83;;;18.30;99.90;;;;;;4964910;28;20428;-60
2021/09/02 09:27:35;;;;;;;10.47;7.37;;;18.30;99.90;;;;;;4955489;28;20484;-63
2021/09/02 09:30:08;;;;;;;12.80;8.73;;;18.20;99.90;;;;;;4943572;28;20411;-60
2021/09/02 09:32:38;;;;;;;11.57;9.53;;;18.20;99.90;;;;;;4963820;28;20426;-59
2021/09/02 09:35:07;;;;;;;24.13;7.80;;;18.20;99.90;;;;;;4960780;28;20496;-60
2021/09/02 09:37:35;;;;;;;13.23;8.33;;;18.20;99.90;;;;;;4974076;28;20570;-64
2021/09/02 09:40:18;;;;;;;14.60;8.23;;;18.20;99.90;;;;;;4956806;28;20752;-60
2021/09/02 09:42:59;;;;;;;11.87;10.63;;;18.20;99.90;;;;;;4955126;28;20567;-59
2021/09/02 09:45:39;;;;;;;10.90;9.53;;;18.20;99.90;;;;;;4935085;29;20454;-59
2021/09/02 09:48:25;;;;;;;9.33;7.57;;;18.20;99.90;;;;;;4951677;28;20531;-60
2021/09/02 09:51:14;;;;;;;19.30;10.20;;;18.20;99.90;;;;;;4949363;28;20450;-59
2021/09/02 09:53:52;;;;;;;10.80;9.47;;;18.10;99.90;;;;;;4957556;28;20452;-59
2021/09/02 09:56:26;;;;;;;10.53;8.87;;;18.10;99.90;;;;;;4961141;28;20474;-61
2021/09/02 09:58:55;;;;;;;10.43;9.30;;;18.10;99.90;;;;;;4950518;28;20457;-61
2021/09/02 10:01:24;;;;;;;13.93;8.67;;;18.10;99.90;;;;;;4948576;28;20430;-69
2021/09/02 10:03:51;;;;;;;9.80;8.53;;;18.10;99.90;;;;;;4956519;28;20523;-60
2021/09/02 10:06:20;;;;;;;9.57;7.87;;;18.10;99.90;;;;;;4964570;28;20891;-61
2021/09/02 10:08:48;;;;;;;10.00;7.93;;;18.00;99.90;;;;;;4953899;28;20436;-73
2021/09/02 10:11:16;;;;;;;11.17;9.97;;;18.10;99.90;;;;;;4957184;28;20933;-76
2021/09/02 10:13:44;;;;;;;11.23;10.07;;;18.00;99.90;;;;;;4941658;28;20792;-74
2021/09/02 10:16:12;;;;;;;10.87;8.67;;;18.00;99.90;;;;;;4947530;29;20448;-70
2021/09/02 10:18:47;;;;;;;12.83;11.53;;;18.00;99.90;;;;;;4949873;29;20862;-72
2021/09/02 10:21:16;;;;;;;10.57;7.30;;;18.00;99.90;;;;;;4954123;29;20850;-72
2021/09/02 10:23:44;;;;;;;10.57;7.67;;;18.10;99.90;;;;;;4953618;29;20429;-72
2021/09/02 10:26:44;;;;;;;11.83;8.07;;;18.00;99.90;;;;;;4943249;28;20476;-73
2021/09/02 10:29:46;;;;;;;10.37;7.80;;;18.00;99.90;;;;;;4895829;29;20428;-72
2021/09/02 10:32:28;;;;;;;14.10;9.83;;;18.00;99.90;;;;;;4873616;29;20480;-72
2021/09/02 10:35:16;;;;;;;11.73;10.23;;;18.00;99.90;;;;;;4943645;29;20946;-74
2021/09/02 10:37:43;;;;;;;12.67;11.13;;;18.00;99.90;;;;;;4937851;29;20437;-73
2021/09/02 10:40:17;;;;;;;11.63;9.33;;;18.00;99.90;;;;;;4957791;29;20765;-73
2021/09/02 10:42:58;;;;;;;12.63;11.33;;;18.10;99.90;;;;;;4944907;28;20461;-70
2021/09/02 10:45:28;;;;;;;15.23;8.03;;;18.10;99.90;;;;;;4960855;28;20555;-73
2021/09/02 10:48:15;;;;;;;10.30;7.67;;;18.10;99.90;;;;;;4956756;28;20432;-72
2021/09/02 10:50:46;;;;;;;12.37;10.53;;;18.10;99.90;;;;;;4950335;29;20943;-74
2021/09/02 10:53:17;;;;;;;12.33;10.93;;;18.10;99.90;;;;;;4956173;29;20483;-70
2021/09/02 10:55:57;;;;;;;11.90;10.00;;;18.10;99.90;;;;;;4949418;28;20491;-72
2021/09/02 10:58:50;;;;;;;11.03;8.07;;;18.10;99.90;;;;;;4957354;29;20421;-73
2021/09/02 11:01:24;;;;;;;11.67;9.37;;;18.10;99.90;;;;;;4948924;29;20422;-71
2021/09/02 11:03:52;;;;;;;11.20;8.13;;;18.10;99.90;;;;;;4950302;29;20783;-71
2021/09/02 11:06:19;;;;;;;13.53;7.77;;;18.10;99.90;;;;;;4955478;29;20475;-69
2021/09/02 11:08:47;;;;;;;11.53;9.90;;;18.10;99.90;;;;;;4952992;29;20851;-72
2021/09/02 11:11:22;;;;;;;11.27;8.53;;;18.10;99.90;;;;;;4931772;29;20912;-72
2021/09/02 11:13:54;;;;;;;10.57;8.27;;;18.00;99.90;;;;;;4954318;29;20434;-71
2021/09/02 11:16:24;;;;;;;10.50;8.23;;;18.00;99.90;;;;;;4948578;29;20922;-73
2021/09/02 11:18:58;;;;;;;10.90;8.97;;;18.00;99.90;;;;;;4954163;29;20440;-70
2021/09/02 11:21:29;;;;;;;10.33;8.27;;;18.00;99.90;;;;;;4952328;28;20425;-72
2021/09/02 11:24:05;;;;;;;12.73;11.47;;;17.90;99.90;;;;;;4956143;28;20430;-71
2021/09/02 11:26:42;;;;;;;10.60;9.17;;;17.90;99.90;;;;;;4954021;28;20461;-70
2021/09/02 11:29:20;;;;;;;9.87;7.67;;;17.90;99.90;;;;;;4956658;29;20423;-73
2021/09/02 11:32:07;;;;;;;10.27;8.33;;;17.90;99.90;;;;;;4945454;29;20543;-71
2021/09/02 11:34:35;;;;;;;10.30;9.17;;;17.90;99.90;;;;;;4950738;29;20443;-72
2021/09/02 11:37:04;;;;;;;12.50;9.20;;;17.80;99.90;;;;;;4955912;29;20419;-72
2021/09/02 11:39:33;;;;;;;12.00;8.57;;;17.80;99.90;;;;;;4955397;28;20455;-73
2021/09/02 11:42:09;;;;;;;10.63;8.93;;;17.80;99.90;;;;;;4954674;28;20434;-72
2021/09/02 11:44:39;;;;;;;10.70;9.10;;;17.80;99.90;;;;;;4953756;28;20466;-72
2021/09/02 11:47:11;;;;;;;9.90;7.80;;;17.70;99.90;;;;;;4953146;29;20542;-72
2021/09/02 11:49:40;;;;;;;10.40;8.40;;;17.70;99.90;;;;;;4955968;28;20424;-69
2021/09/02 11:52:10;;;;;;;12.10;10.87;;;17.70;99.90;;;;;;4941572;29;20513;-72
2021/09/02 11:54:37;;;;;;;10.70;9.23;;;17.70;99.90;;;;;;4948320;28;20514;-70
2021/09/02 11:57:05;;;;;;;12.47;8.63;;;17.70;99.90;;;;;;4944690;29;20423;-71
2021/09/02 11:59:33;;;;;;;10.27;8.10;;;17.60;99.90;;;;;;4954853;28;20439;-71
2021/09/02 12:02:00;;;;;;;10.63;8.67;;;17.60;99.90;;;;;;4955746;28;20412;-72
2021/09/02 12:04:31;;;;;;;11.53;8.10;;;17.60;99.90;;;;;;4955678;28;20503;-70
2021/09/02 12:07:01;;;;;;;10.53;8.50;;;17.60;99.90;;;;;;4950823;29;21298;-72
2021/09/02 12:09:34;;;;;;;10.17;7.97;;;17.70;99.90;;;;;;4960724;28;20519;-71
2021/09/02 12:12:02;;;;;;;10.37;8.47;;;17.60;99.90;;;;;;4966810;28;20499;-73
2021/09/02 12:14:32;;;;;;;11.33;9.90;;;17.60;99.90;;;;;;4956148;28;20439;-72
2021/09/02 12:17:05;;;;;;;10.43;8.07;;;17.50;99.90;;;;;;4971199;28;20997;-70
2021/09/02 12:19:53;;;;;;;11.50;10.23;;;17.50;99.90;;;;;;4945518;29;21188;-72
2021/09/02 12:22:24;;;;;;;10.20;8.60;;;17.50;99.90;;;;;;4957935;28;20419;-73
2021/09/02 12:24:51;;;;;;;10.53;9.00;;;17.50;99.90;;;;;;4956877;28;20532;-71
2021/09/02 12:27:18;;;;;;;11.37;9.37;;;17.50;99.90;;;;;;4974644;28;20464;-73
2021/09/02 12:29:48;;;;;;;12.90;10.30;;;17.50;99.90;;;;;;4959657;28;20446;-72
2021/09/02 12:32:20;;;;;;;10.80;9.40;;;17.50;99.90;;;;;;4964810;28;20432;-73
2021/09/02 12:34:49;;;;;;;11.13;9.97;;;17.60;99.90;;;;;;4953852;28;20978;-72
2021/09/02 12:37:19;;;;;;;10.63;9.37;;;17.50;99.90;;;;;;4948056;29;20442;-73
2021/09/02 12:39:53;;;;;;;10.70;9.43;;;17.50;99.90;;;;;;4948995;29;20423;-71
2021/09/02 12:42:30;;;;;;;10.80;9.53;;;17.50;99.90;;;;;;4953750;28;20474;-71
2021/09/02 12:45:08;;;;;;;10.80;9.43;;;17.40;99.90;;;;;;4953996;28;20496;-71
2021/09/02 12:47:36;;;;;;;9.87;7.93;;;17.40;99.90;;;;;;4955368;28;20434;-71
2021/09/02 12:50:18;;;;;;;9.90;8.47;;;17.40;99.90;;;;;;4954708;28;20436;-72